Have a Safe July 4th! 

Flight Track Log - Related Links

Times and Time Zones

All times are in EDT time to prevent confusion due to time zone crossing. See the N926JA flight status page for this flight to view local times or setup timezone preferences in your user account.

Time Position Orientation Groundspeed Altitude Reporting Facility
EDT Latitude Longitude Course Direction KTS MPH feet Rate Location/Type
Mon 05:28:46 PM 42.2261 -83.5472 235° Southwest 72 83 1,000  Level Cleveland Center
Mon 05:29:52 PM 42.2106 -83.5772 235° Southwest 77 89 1,700 604 Climbing Cleveland Center
Mon 05:31:05 PM 42.2119 -83.6053 274° West 79 91 2,400 375 Climbing Cleveland Center
Mon 05:32:00 PM 42.2372 -83.5953 16° North 117 135 2,500 52 Climbing Cleveland Center
Mon 05:33:01 PM 42.2589 -83.5628 48° Northeast 121 139 2,500  Level Cleveland Center
Mon 05:34:08 PM 42.2844 -83.5442 28° Northeast 107 123 2,500  Level Cleveland Center
Mon 05:35:03 PM 42.3028 -83.5647 320° Northwest 92 106 2,500  Level Cleveland Center
Mon 05:36:04 PM 42.2978 -83.5983 259° West 90 104 2,500  Level Cleveland Center
Mon 05:37:04 PM 42.2822 -83.6256 232° Southwest 90 104 2,500 -99 Level Cleveland Center
Mon 05:38:05 PM 42.2711 -83.6558 244° Southwest 76 87 2,300 -259 Descending Cleveland Center
Mon 05:39:00 PM 42.2600 -83.6778 236° Southwest 84 97 2,000 -362 Descending Cleveland Center
Mon 05:40:01 PM 42.2447 -83.7022 230° Southwest 84 97 1,600 -443 Descending Cleveland Center
Mon 05:41:02 PM 42.2336 -83.7297 241° Southwest 85 98 1,100  Descending Cleveland Center
Mon 05:42:03 PM 42.2206 -83.7517 231° Southwest 78 90 1,600 541 Climbing Cleveland Center
Mon 05:43:04 PM 42.2136 -83.7794 251° West 69 79 2,200 443 Climbing Cleveland Center
Mon 05:44:05 PM 42.2047 -83.7956 233° Southwest 83 96 2,500 393 Climbing Cleveland Center
Mon 05:45:06 PM 42.2261 -83.7744 36° Northeast 97 112 3,000 443 Climbing Cleveland Center
Mon 05:46:07 PM 42.2433 -83.7528 43° Northeast 90 104 3,400 443 Climbing Cleveland Center
Mon 05:47:08 PM 42.2628 -83.7283 43° Northeast 89 102 3,900 295 Climbing Cleveland Center
Mon 05:48:09 PM 42.2864 -83.7100 30° Northeast 115 132 4,000 49 Climbing Cleveland Center
Mon 05:49:10 PM 42.3164 -83.6833 33° Northeast 118 136 4,000  Level Cleveland Center
Mon 05:50:11 PM 42.3419 -83.6594 35° Northeast 116 133 4,000  Level Cleveland Center
Mon 05:51:12 PM 42.3675 -83.6353 35° Northeast 115 132 4,000  Level Cleveland Center
Mon 05:52:13 PM 42.3953 -83.6086 35° Northeast 117 135 4,000  Level Cleveland Center
Mon 05:53:14 PM 42.4211 -83.5844 35° Northeast 112 129 4,000  Level Cleveland Center
Mon 05:54:15 PM 42.4564 -83.5833 North 108 124 4,000  Level Cleveland Center
Mon 05:55:16 PM 42.4456 -83.6053 236° Southwest 110 127 4,000  Level Cleveland Center
Mon 05:56:17 PM 42.4164 -83.5983 170° South 110 127 4,000 -197 Level Cleveland Center
Mon 05:57:18 PM 42.3878 -83.5856 162° South 112 129 3,600 -492 Descending Cleveland Center
Mon 05:58:19 PM 42.3608 -83.5703 157° South 100 115 3,000 -492 Descending Cleveland Center
Mon 05:59:20 PM 42.3339 -83.5633 169° South 97 112 2,600 -246 Descending Cleveland Center
Mon 06:00:21 PM 42.3094 -83.5483 156° South 97 112 2,500 -443 Descending Cleveland Center
Mon 06:01:22 PM 42.2867 -83.5358 158° South 86 99 1,700 -541 Descending Cleveland Center
Mon 06:02:23 PM 42.2617 -83.5375 183° South 87 100 1,400 -295 Descending Cleveland Center

Login

Don't have an account? Register now (free) for customized features, flight alerts, and more!